Time;durP1;ratioP1;P1;durP2;ratioP2;P2;SDS_P1;SDS_P2;PMS_P1;PMS_P2;Temp;Humidity;BMP_temperature;BMP_pressure;BME280_temperature;BME280_humidity;BME280_pressure;Samples;Min_cycle;Max_cycle;Signal;HPM_P1;HPM_P2
2023/01/12 00:01:50;;;;;;;6.88;0.50;;;6.40;76.30;;;;;;4108059;28;20046;-87
2023/01/12 00:04:16;;;;;;;2.22;0.38;;;6.40;76.40;;;;;;4086287;29;20043;-86
2023/01/12 00:06:39;;;;;;;3.35;0.35;;;6.40;76.60;;;;;;4093169;28;20556;-86
2023/01/12 00:09:07;;;;;;;2.25;0.30;;;6.40;76.60;;;;;;4090004;28;20544;-88
2023/01/12 00:11:27;;;;;;;3.33;0.40;;;6.30;76.70;;;;;;4080351;29;20616;-88
2023/01/12 00:13:53;;;;;;;2.25;0.40;;;6.40;76.80;;;;;;4093482;28;20055;-89
2023/01/12 00:16:34;;;;;;;6.32;0.47;;;6.30;76.90;;;;;;4082065;29;20183;-87
2023/01/12 00:19:22;;;;;;;2.42;0.43;;;6.20;76.90;;;;;;4094943;28;20413;-88
2023/01/12 00:21:58;;;;;;;4.20;0.40;;;6.20;77.10;;;;;;4081956;28;20101;-89
2023/01/12 00:24:18;;;;;;;3.58;0.70;;;6.30;77.10;;;;;;4105746;28;20469;-88
2023/01/12 00:26:41;;;;;;;6.70;0.65;;;6.20;77.30;;;;;;4094741;28;20038;-88
2023/01/12 00:29:05;;;;;;;8.10;0.80;;;6.20;77.50;;;;;;4079595;28;20479;-88
2023/01/12 00:31:28;;;;;;;6.78;1.00;;;6.10;77.70;;;;;;4106023;28;20042;-88
2023/01/12 00:33:50;;;;;;;6.68;1.10;;;6.20;77.80;;;;;;4083154;28;20072;-88
2023/01/12 00:36:18;;;;;;;5.72;1.15;;;6.20;78.00;;;;;;4162546;23;20165;-86
2023/01/12 00:38:37;;;;;;;10.32;1.58;;;6.10;78.00;;;;;;4138328;28;20084;-85
2023/01/12 00:40:57;;;;;;;12.20;1.00;;;6.10;78.10;;;;;;4136577;28;20514;-86
2023/01/12 00:45:54;;;;;;;10.77;1.15;;;6.10;78.50;;;;;;4139534;28;20527;-86
2023/01/12 00:48:14;;;;;;;10.23;1.50;;;6.10;78.60;;;;;;4152459;28;20571;-86
2023/01/12 00:50:33;;;;;;;12.65;1.30;;;6.10;78.70;;;;;;4141834;28;20045;-86
2023/01/12 00:52:52;;;;;;;7.97;1.33;;;6.20;79.00;;;;;;4144966;28;20117;-85
2023/01/12 00:55:11;;;;;;;13.68;1.90;;;6.10;79.00;;;;;;4140874;28;20506;-86
2023/01/12 00:57:31;;;;;;;12.32;1.17;;;6.10;79.00;;;;;;4142864;28;20125;-86
2023/01/12 00:59:53;;;;;;;14.68;1.58;;;6.10;79.10;;;;;;4143086;28;20073;-86
2023/01/12 01:02:13;;;;;;;15.30;1.75;;;6.10;79.10;;;;;;4142902;28;20103;-86
2023/01/12 01:04:35;;;;;;;14.57;1.73;;;6.20;79.30;;;;;;4139224;28;20045;-86
2023/01/12 01:06:55;;;;;;;17.05;1.83;;;6.10;79.20;;;;;;4144016;28;20114;-86
2023/01/12 01:09:15;;;;;;;13.55;1.95;;;6.20;79.40;;;;;;4143040;28;20045;-85
2023/01/12 01:11:34;;;;;;;15.50;1.60;;;6.20;79.40;;;;;;4142979;28;20036;-87
2023/01/12 01:13:54;;;;;;;13.40;1.65;;;6.20;79.40;;;;;;4142554;28;20090;-86
2023/01/12 01:16:17;;;;;;;18.52;2.13;;;6.20;79.40;;;;;;4141196;28;20108;-85
2023/01/12 01:18:37;;;;;;;9.07;1.65;;;6.20;79.60;;;;;;4142392;28;20124;-86
2023/01/12 01:20:56;;;;;;;15.77;1.80;;;6.30;79.60;;;;;;4137433;28;20083;-85
2023/01/12 01:23:15;;;;;;;22.55;1.63;;;6.20;79.50;;;;;;4138960;28;20095;-85
2023/01/12 01:25:34;;;;;;;20.13;1.83;;;6.30;79.70;;;;;;4141713;28;20548;-84
2023/01/12 01:27:53;;;;;;;12.25;1.70;;;6.20;79.60;;;;;;4140800;28;20040;-85
2023/01/12 01:30:13;;;;;;;17.35;1.73;;;6.20;79.70;;;;;;4141287;28;20036;-85
2023/01/12 01:32:32;;;;;;;18.75;2.03;;;6.30;79.70;;;;;;4139355;28;20097;-85
2023/01/12 01:34:51;;;;;;;21.48;1.88;;;6.30;79.70;;;;;;4144381;28;20044;-85
2023/01/12 01:37:11;;;;;;;18.45;1.77;;;6.30;79.60;;;;;;4139845;28;20048;-85
2023/01/12 01:39:31;;;;;;;14.40;1.92;;;6.30;79.60;;;;;;4142511;28;20080;-85
2023/01/12 01:41:50;;;;;;;13.23;1.77;;;6.30;79.60;;;;;;4155768;28;20055;-85
2023/01/12 01:44:28;;;;;;;14.35;1.83;;;6.30;79.50;;;;;;4156402;28;20188;-86
2023/01/12 01:46:52;;;;;;;16.88;2.08;;;6.30;79.40;;;;;;4141384;28;20041;-85
2023/01/12 01:49:23;;;;;;;20.58;2.03;;;6.30;79.30;;;;;;4144437;28;20041;-85
2023/01/12 01:51:44;;;;;;;15.68;1.98;;;6.30;79.20;;;;;;4156158;28;20763;-85
2023/01/12 01:54:04;;;;;;;23.17;2.08;;;6.20;79.10;;;;;;4139915;28;20069;-86
2023/01/12 01:56:29;;;;;;;19.13;2.35;;;6.20;79.10;;;;;;4139670;28;20542;-85
2023/01/12 01:58:54;;;;;;;19.95;2.17;;;6.20;79.00;;;;;;4139643;28;20049;-85
2023/01/12 02:01:13;;;;;;;20.63;2.20;;;6.20;79.00;;;;;;4139920;28;20053;-85
2023/01/12 02:03:34;;;;;;;19.73;2.17;;;6.20;79.00;;;;;;4142770;28;20084;-87
2023/01/12 02:05:57;;;;;;;20.30;2.17;;;6.10;78.90;;;;;;4139481;28;20107;-86
2023/01/12 02:08:37;;;;;;;17.55;2.13;;;6.20;79.10;;;;;;4139078;28;20049;-85
2023/01/12 02:10:59;;;;;;;27.42;2.75;;;6.10;79.10;;;;;;4155502;28;20036;-87
2023/01/12 02:16:26;;;;;;;18.98;2.25;;;6.20;79.40;;;;;;4139027;28;20037;-85
2023/01/12 02:18:52;;;;;;;29.95;2.42;;;6.10;79.40;;;;;;4142130;28;20045;-85
2023/01/12 02:21:27;;;;;;;22.73;2.78;;;6.10;79.60;;;;;;4142641;28;20073;-86
2023/01/12 02:23:59;;;;;;;21.60;2.78;;;6.10;79.60;;;;;;4140776;28;20800;-86
2023/01/12 02:26:28;;;;;;;30.33;3.15;;;6.10;79.90;;;;;;4154435;28;20224;-86
2023/01/12 02:28:53;;;;;;;21.23;2.90;;;6.20;80.10;;;;;;4139891;28;20563;-85
2023/01/12 02:31:32;;;;;;;31.27;3.47;;;6.10;79.90;;;;;;4141833;28;20037;-86
2023/01/12 02:34:10;;;;;;;34.05;3.78;;;6.20;80.00;;;;;;4141433;28;20095;-84
2023/01/12 02:36:48;;;;;;;22.33;2.97;;;6.10;80.00;;;;;;4154601;28;20613;-86
2023/01/12 02:39:23;;;;;;;21.23;3.33;;;6.10;80.00;;;;;;4138676;28;20115;-86
2023/01/12 02:44:43;;;;;;;29.55;3.47;;;6.10;79.90;;;;;;4140890;28;20037;-86
2023/01/12 02:47:08;;;;;;;32.58;3.63;;;6.10;79.90;;;;;;4143047;28;20049;-86
2023/01/12 02:49:32;;;;;;;35.83;3.30;;;6.10;79.80;;;;;;4141026;28;20052;-86
2023/01/12 02:51:56;;;;;;;37.60;5.00;;;6.10;79.70;;;;;;4137752;28;20137;-86
2023/01/12 02:54:19;;;;;;;41.53;3.85;;;6.10;79.60;;;;;;4140109;28;20056;-85
2023/01/12 02:56:44;;;;;;;34.70;3.95;;;6.10;79.60;;;;;;4140744;28;20092;-85
2023/01/12 02:59:09;;;;;;;29.98;3.72;;;6.10;79.60;;;;;;4142334;28;20044;-86
2023/01/12 03:01:32;;;;;;;21.23;3.05;;;6.00;79.40;;;;;;4138853;28;20048;-86
2023/01/12 03:03:57;;;;;;;38.85;4.03;;;6.00;79.40;;;;;;4142703;28;20053;-86
2023/01/12 03:06:17;;;;;;;28.90;2.97;;;6.00;79.40;;;;;;4152972;28;20613;-86
2023/01/12 03:08:38;;;;;;;38.22;3.78;;;6.00;79.40;;;;;;4152244;28;20044;-86
2023/01/12 03:11:13;;;;;;;18.65;3.40;;;6.10;79.50;;;;;;4153803;28;20052;-85
2023/01/12 03:13:34;;;;;;;;;;;6.00;79.40;;;;;;4141427;28;20057;-85
2023/01/12 03:15:56;;;;;;;22.35;3.45;;;6.00;79.40;;;;;;4141894;28;19967;-85
2023/01/12 03:18:22;;;;;;;25.88;3.15;;;6.00;79.30;;;;;;4142125;28;20073;-86
2023/01/12 03:20:54;;;;;;;24.83;3.65;;;5.90;79.20;;;;;;4150264;28;20085;-86
2023/01/12 03:23:18;;;;;;;32.95;3.33;;;5.90;79.20;;;;;;4139212;28;20057;-86
2023/01/12 03:25:41;;;;;;;21.20;3.00;;;5.90;79.10;;;;;;4141402;28;20096;-85
2023/01/12 03:28:05;;;;;;;25.87;3.00;;;5.90;79.20;;;;;;4142501;28;20037;-86
2023/01/12 03:30:32;;;;;;;27.15;3.20;;;5.90;79.20;;;;;;4138989;28;20385;-85
2023/01/12 03:32:51;;;;;;;29.00;3.15;;;5.90;79.20;;;;;;4154999;28;20039;-85
2023/01/12 03:35:11;;;;;;;20.00;3.00;;;5.90;79.20;;;;;;4153514;28;22052;-86
2023/01/12 03:37:43;;;;;;;28.27;3.28;;;5.90;79.20;;;;;;4153511;28;20044;-86
2023/01/12 03:40:10;;;;;;;23.02;3.17;;;5.90;79.20;;;;;;4140947;28;20040;-85
2023/01/12 03:42:47;;;;;;;17.35;2.63;;;5.90;79.20;;;;;;4153577;28;20037;-85
2023/01/12 03:45:31;;;;;;;25.15;3.30;;;5.80;79.10;;;;;;4150276;28;20044;-86
2023/01/12 03:48:00;;;;;;;33.05;3.25;;;5.80;79.10;;;;;;4153753;28;20154;-85
2023/01/12 03:50:26;;;;;;;23.65;2.83;;;5.80;79.10;;;;;;4135150;28;20132;-85
2023/01/12 03:52:46;;;;;;;33.10;2.95;;;5.90;79.20;;;;;;4139719;28;20515;-86
2023/01/12 03:55:09;;;;;;;25.25;3.35;;;5.80;79.20;;;;;;4142331;28;20032;-86
2023/01/12 03:57:30;;;;;;;34.58;3.63;;;5.80;79.30;;;;;;4153724;28;20044;-86
2023/01/12 03:59:55;;;;;;;18.08;2.88;;;5.80;79.40;;;;;;4141140;28;20452;-86
2023/01/12 04:02:15;;;;;;;20.20;2.85;;;5.80;79.30;;;;;;4141973;28;20060;-85
2023/01/12 04:04:34;;;;;;;25.02;2.72;;;5.90;79.30;;;;;;4153683;28;20037;-85
2023/01/12 04:06:54;;;;;;;16.50;2.85;;;5.80;79.20;;;;;;4139823;28;20619;-85
2023/01/12 04:09:13;;;;;;;15.48;2.53;;;5.90;79.40;;;;;;4153552;28;20040;-86
2023/01/12 04:14:10;;;;;;;20.85;2.40;;;5.80;79.50;;;;;;4141525;28;20049;-85
2023/01/12 04:16:30;;;;;;;15.07;2.65;;;5.80;79.60;;;;;;4141350;28;20045;-85
2023/01/12 04:18:49;;;;;;;17.80;3.10;;;5.80;79.60;;;;;;4156849;28;20077;-86
2023/01/12 04:22:41;;;;;;;22.35;2.50;;;5.80;79.70;;;;;;4142799;28;20048;-87
2023/01/12 04:23:47;;;;;;;33.53;2.40;;;5.90;79.80;;;;;;4145056;28;20104;-86
2023/01/12 04:26:07;;;;;;;19.33;2.80;;;5.80;79.90;;;;;;4146147;28;20148;-86
2023/01/12 04:28:26;;;;;;;17.27;2.08;;;5.90;80.00;;;;;;4143448;28;20112;-85
2023/01/12 04:30:45;;;;;;;19.30;2.72;;;5.90;79.90;;;;;;4160417;28;20098;-86
2023/01/12 04:33:08;;;;;;;18.40;2.60;;;5.90;79.90;;;;;;4158456;28;20087;-86
2023/01/12 04:35:27;;;;;;;20.60;2.50;;;5.90;79.90;;;;;;4146776;28;20048;-85
2023/01/12 04:37:46;;;;;;;16.38;2.67;;;5.90;80.60;;;;;;4147464;28;20080;-86
2023/01/12 04:40:08;;;;;;;19.05;1.98;;;5.90;79.90;;;;;;4140057;28;20061;-85
2023/01/12 04:45:05;;;;;;;20.60;2.92;;;6.00;80.00;;;;;;4141006;28;20044;-86
2023/01/12 04:47:25;;;;;;;19.63;2.33;;;6.00;80.10;;;;;;4154995;28;20104;-86
2023/01/12 04:49:44;;;;;;;23.83;3.10;;;6.10;80.20;;;;;;4139495;28;20515;-85
2023/01/12 04:52:03;;;;;;;20.50;2.58;;;6.00;80.10;;;;;;4142519;28;20566;-85
2023/01/12 04:54:23;;;;;;;23.35;3.30;;;6.00;80.10;;;;;;4142286;28;20104;-85
2023/01/12 04:56:42;;;;;;;23.90;3.30;;;6.00;80.20;;;;;;4145766;28;20095;-86
2023/01/12 04:59:01;;;;;;;32.67;3.20;;;6.20;80.30;;;;;;4144765;28;20140;-85
2023/01/12 05:01:21;;;;;;;23.52;3.03;;;6.20;80.40;;;;;;4141503;28;20049;-85
2023/01/12 05:03:41;;;;;;;24.52;2.90;;;6.20;80.50;;;;;;4141920;28;20187;-86
2023/01/12 05:06:03;;;;;;;27.35;4.07;;;6.30;80.50;;;;;;4144746;28;20041;-85
2023/01/12 05:11:01;;;;;;;22.77;3.00;;;6.20;80.60;;;;;;4142017;28;20064;-86
2023/01/12 05:13:21;;;;;;;28.67;3.33;;;6.20;80.50;;;;;;4140162;28;20088;-86
2023/01/12 05:15:40;;;;;;;25.95;3.10;;;6.20;80.50;;;;;;4142301;28;20061;-86
2023/01/12 05:17:59;;;;;;;28.08;3.90;;;6.30;80.50;;;;;;4142717;28;20509;-86
2023/01/12 05:20:20;;;;;;;23.98;2.70;;;6.30;80.40;;;;;;4141104;28;20073;-86
2023/01/12 05:22:39;;;;;;;31.35;3.20;;;6.30;80.30;;;;;;4145107;28;20132;-86
2023/01/12 05:24:58;;;;;;;28.60;4.22;;;6.40;80.30;;;;;;4143088;28;20049;-86
2023/01/12 05:27:17;;;;;;;29.88;4.05;;;6.30;80.20;;;;;;4146073;28;20136;-86
2023/01/12 05:29:36;;;;;;;24.60;3.55;;;6.30;80.20;;;;;;4147606;28;20045;-86
2023/01/12 05:31:56;;;;;;;21.95;3.47;;;6.30;80.10;;;;;;4159318;28;20085;-85
2023/01/12 05:34:18;;;;;;;29.80;4.05;;;6.30;80.10;;;;;;4139071;28;20097;-86
2023/01/12 05:36:37;;;;;;;31.13;3.65;;;6.30;80.10;;;;;;4135364;28;20049;-86
2023/01/12 05:38:56;;;;;;;25.75;3.25;;;6.30;80.10;;;;;;4143719;28;20056;-85
2023/01/12 05:41:15;;;;;;;21.92;2.60;;;6.30;80.00;;;;;;4141788;28;20037;-87
2023/01/12 05:43:50;;;;;;;26.45;3.42;;;6.30;80.00;;;;;;4148401;28;20064;-86
2023/01/12 05:46:09;;;;;;;21.23;2.90;;;6.30;80.00;;;;;;4146078;23;20088;-86
2023/01/12 05:48:29;;;;;;;24.02;3.10;;;6.30;80.00;;;;;;4085606;28;20050;-86
2023/01/12 05:50:48;;;;;;;20.58;2.70;;;6.30;80.00;;;;;;4101083;28;20569;-87
2023/01/12 05:53:09;;;;;;;21.02;2.90;;;6.30;80.00;;;;;;4100788;28;20053;-87
2023/01/12 05:55:28;;;;;;;18.20;2.35;;;6.40;80.10;;;;;;4089046;28;20880;-87
2023/01/12 05:57:47;;;;;;;20.02;2.65;;;6.30;80.00;;;;;;4089535;28;20610;-86
2023/01/12 06:00:07;;;;;;;21.80;2.78;;;6.30;79.90;;;;;;4098503;28;20106;-87
2023/01/12 06:02:27;;;;;;;18.30;3.17;;;6.30;80.00;;;;;;4085004;28;20046;-86
2023/01/12 06:04:46;;;;;;;28.15;3.53;;;6.30;79.90;;;;;;4102203;28;20088;-84
2023/01/12 06:07:05;;;;;;;21.42;2.45;;;6.30;79.90;;;;;;4089178;28;20046;-86
2023/01/12 06:09:24;;;;;;;23.73;2.80;;;6.40;80.00;;;;;;4091469;28;20038;-86
2023/01/12 06:14:21;;;;;;;20.45;2.53;;;6.40;80.00;;;;;;4090677;28;20050;-86
2023/01/12 06:16:41;;;;;;;22.48;3.05;;;6.40;80.00;;;;;;4102948;28;20041;-86
2023/01/12 06:19:01;;;;;;;21.45;2.20;;;6.40;80.00;;;;;;4091729;28;20423;-86
2023/01/12 06:21:20;;;;;;;16.50;2.65;;;6.40;80.10;;;;;;4092086;28;20090;-85
2023/01/12 06:23:39;;;;;;;11.55;2.30;;;6.40;80.10;;;;;;4092388;28;20131;-85
2023/01/12 06:26:03;;;;;;;19.48;2.78;;;6.40;80.10;;;;;;4105346;28;20573;-85
2023/01/12 06:28:22;;;;;;;17.52;2.58;;;6.40;80.20;;;;;;4093084;28;20545;-86
2023/01/12 06:30:42;;;;;;;16.42;2.25;;;6.40;80.20;;;;;;4091087;28;20452;-86
2023/01/12 06:33:02;;;;;;;18.98;2.17;;;6.40;80.20;;;;;;4102801;28;20042;-86
2023/01/12 06:35:21;;;;;;;18.90;2.72;;;6.40;80.20;;;;;;4103037;28;20089;-86
2023/01/12 06:37:40;;;;;;;11.23;2.22;;;6.40;80.30;;;;;;4089746;28;20341;-86
2023/01/12 06:39:59;;;;;;;16.88;2.50;;;6.50;80.40;;;;;;4121942;23;20095;-88
2023/01/12 06:45:15;;;;;;;12.82;2.13;;;6.50;80.40;;;;;;4111632;28;20049;-87
2023/01/12 06:48:02;;;;;;;16.67;2.30;;;6.60;80.40;;;;;;4108315;28;20100;-84
2023/01/12 06:50:22;;;;;;;19.80;2.50;;;6.50;80.40;;;;;;4094194;28;20862;-85
2023/01/12 06:52:44;;;;;;;9.75;2.03;;;6.60;80.50;;;;;;4105946;28;20097;-84
2023/01/12 06:55:06;;;;;;;22.85;3.08;;;6.50;80.40;;;;;;4094282;28;20047;-85
2023/01/12 06:57:26;;;;;;;11.85;2.75;;;6.60;80.50;;;;;;4109064;28;20458;-86
2023/01/12 06:59:59;;;;;;;14.60;2.30;;;6.60;81.30;;;;;;4107257;28;20046;-87
2023/01/12 07:02:35;;;;;;;10.63;2.20;;;6.50;80.60;;;;;;4106568;28;20064;-84
2023/01/12 07:04:55;;;;;;;17.58;2.50;;;6.60;80.60;;;;;;4105483;28;20037;-83
2023/01/12 07:07:26;;;;;;;16.00;2.42;;;6.60;80.60;;;;;;4099604;28;20089;-84
2023/01/12 07:09:45;;;;;;;9.48;2.17;;;6.60;80.60;;;;;;4096709;28;20870;-82
2023/01/12 07:12:05;;;;;;;17.13;2.42;;;6.70;80.70;;;;;;4104465;28;20042;-84
2023/01/12 07:14:39;;;;;;;19.73;2.38;;;6.60;80.60;;;;;;4107049;28;20440;-86
2023/01/12 07:16:58;;;;;;;9.25;2.40;;;6.60;80.60;;;;;;4096453;28;20761;-86
2023/01/12 07:19:17;;;;;;;11.82;2.15;;;6.70;80.70;;;;;;4129221;28;20041;-85
2023/01/12 07:24:35;;;;;;;11.15;2.33;;;6.70;80.70;;;;;;4143416;28;20089;-86
2023/01/12 07:27:10;;;;;;;12.18;2.60;;;6.70;80.70;;;;;;4141292;28;20037;-86
2023/01/12 07:29:30;;;;;;;13.02;2.33;;;6.70;80.70;;;;;;4148528;28;20579;-85
2023/01/12 07:31:52;;;;;;;9.93;2.47;;;6.80;80.80;;;;;;4141057;28;20053;-86
2023/01/12 07:34:11;;;;;;;8.95;2.63;;;6.80;80.80;;;;;;4128985;28;20038;-86
2023/01/12 07:36:31;;;;;;;14.43;3.17;;;6.70;80.80;;;;;;4144911;28;20642;-85
2023/01/12 07:38:50;;;;;;;11.07;2.97;;;6.70;80.80;;;;;;4140521;28;20109;-86
2023/01/12 07:43:56;;;;;;;10.75;3.00;;;6.80;81.00;;;;;;4141983;28;20048;-86
2023/01/12 07:46:21;;;;;;;11.48;3.00;;;6.80;81.00;;;;;;4128937;28;20057;-85
2023/01/12 07:48:40;;;;;;;7.43;2.42;;;6.80;81.00;;;;;;4132799;28;20065;-84
2023/01/12 07:50:59;;;;;;;12.48;2.22;;;6.80;81.00;;;;;;4140742;28;20036;-86
2023/01/12 07:53:27;;;;;;;10.85;2.42;;;6.70;81.00;;;;;;4143568;28;20040;-85
2023/01/12 07:55:47;;;;;;;4.88;1.90;;;6.70;81.00;;;;;;4128981;28;20040;-85
2023/01/12 07:58:10;;;;;;;6.60;1.70;;;6.80;81.10;;;;;;4145167;28;20096;-85
2023/01/12 08:00:32;;;;;;;3.63;1.50;;;6.80;81.10;;;;;;4134052;28;20084;-85
2023/01/12 08:03:11;;;;;;;6.32;1.70;;;6.80;81.20;;;;;;4138303;28;20046;-86
2023/01/12 08:05:30;;;;;;;4.43;1.35;;;6.80;81.30;;;;;;4144361;28;20037;-86
2023/01/12 08:07:49;;;;;;;6.65;1.35;;;6.90;81.30;;;;;;4144514;28;20038;-87
2023/01/12 08:10:20;;;;;;;3.38;1.15;;;6.90;81.40;;;;;;4127731;28;20040;-86
2023/01/12 08:12:40;;;;;;;5.75;1.90;;;6.80;81.40;;;;;;4145459;28;20399;-85
2023/01/12 08:14:59;;;;;;;4.70;1.48;;;6.90;81.50;;;;;;4152096;28;20037;-86
2023/01/12 08:17:21;;;;;;;6.05;1.73;;;6.80;81.50;;;;;;4141996;28;20084;-86
2023/01/12 08:19:54;;;;;;;3.45;1.50;;;6.90;81.70;;;;;;4151493;28;20145;-84
2023/01/12 08:22:41;;;;;;;4.22;1.63;;;6.90;81.60;;;;;;4128600;28;20129;-86
2023/01/12 08:25:20;;;;;;;5.82;1.60;;;6.90;81.60;;;;;;4124644;28;20161;-86
2023/01/12 08:28:09;;;;;;;3.17;1.50;;;6.90;81.60;;;;;;4140979;28;20041;-86
2023/01/12 08:30:32;;;;;;;4.80;1.52;;;6.90;81.60;;;;;;4077010;28;20070;-86
2023/01/12 08:33:03;;;;;;;3.25;1.50;;;6.90;81.60;;;;;;4068188;29;20071;-86
2023/01/12 08:35:31;;;;;;;5.60;1.90;;;7.00;81.80;;;;;;4075529;29;20062;-86
2023/01/12 08:37:54;;;;;;;1.98;1.60;;;7.00;81.90;;;;;;4076384;29;20075;-86
2023/01/12 08:40:13;;;;;;;2.47;1.63;;;7.00;81.90;;;;;;4077084;29;20059;-85
2023/01/12 08:42:33;;;;;;;4.40;1.63;;;7.10;81.90;;;;;;4078769;29;20094;-86
2023/01/12 08:45:01;;;;;;;7.50;2.10;;;7.00;82.00;;;;;;4081317;29;20044;-85
2023/01/12 08:47:33;;;;;;;4.28;2.00;;;7.00;82.00;;;;;;4063735;29;20078;-86
2023/01/12 08:49:56;;;;;;;4.38;1.95;;;7.10;82.00;;;;;;4081271;29;20046;-87
2023/01/12 08:52:15;;;;;;;5.88;2.55;;;7.10;82.10;;;;;;4067135;29;20039;-86
2023/01/12 08:54:35;;;;;;;5.90;1.90;;;7.10;82.80;;;;;;4080052;29;20070;-86
2023/01/12 08:56:54;;;;;;;5.55;1.90;;;7.10;82.10;;;;;;4078850;29;20043;-85
2023/01/12 08:59:15;;;;;;;4.63;1.55;;;7.20;82.20;;;;;;4077678;29;20102;-86
2023/01/12 09:01:34;;;;;;;4.07;1.60;;;7.20;82.20;;;;;;4062453;29;20050;-86
2023/01/12 09:03:58;;;;;;;2.75;1.50;;;7.20;82.20;;;;;;4067856;29;20091;-85
2023/01/12 09:06:22;;;;;;;3.42;1.40;;;7.10;82.10;;;;;;4081258;29;20179;-87
2023/01/12 09:08:45;;;;;;;2.72;1.20;;;7.10;82.10;;;;;;4127990;28;20077;-86
2023/01/12 09:11:13;;;;;;;2.05;1.13;;;7.20;82.20;;;;;;4146069;28;20168;-86
2023/01/12 09:13:33;;;;;;;2.20;1.05;;;7.20;82.30;;;;;;4145243;28;20522;-86
2023/01/12 09:16:05;;;;;;;0.98;0.85;;;7.30;82.30;;;;;;4131056;28;20040;-86
2023/01/12 09:18:44;;;;;;;2.10;0.85;;;7.20;82.50;;;;;;4143923;28;20033;-86
2023/01/12 09:21:08;;;;;;;1.00;0.52;;;7.20;82.40;;;;;;4143701;28;20068;-85
2023/01/12 09:23:32;;;;;;;0.52;0.52;;;7.30;82.40;;;;;;4142706;28;20396;-86
2023/01/12 09:25:51;;;;;;;1.38;0.60;;;7.30;82.50;;;;;;4143707;28;20088;-84
2023/01/12 09:28:24;;;;;;;1.38;0.40;;;7.20;82.50;;;;;;4142718;28;20120;-86
2023/01/12 09:30:44;;;;;;;1.02;0.43;;;7.30;82.60;;;;;;4145356;28;20045;-86
2023/01/12 09:33:08;;;;;;;0.82;0.20;;;7.30;82.70;;;;;;4145808;28;20037;-85
2023/01/12 09:35:27;;;;;;;0.80;0.28;;;7.40;82.80;;;;;;4143661;28;20041;-86
2023/01/12 09:37:47;;;;;;;1.63;0.40;;;7.30;82.90;;;;;;4131322;28;20630;-86
2023/01/12 09:40:09;;;;;;;1.63;0.20;;;7.40;83.00;;;;;;4145744;28;20076;-85
2023/01/12 09:48:18;;;;;;;0.55;0.25;;;7.50;83.30;;;;;;4144604;28;20037;-86
2023/01/12 09:50:56;;;;;;;1.33;0.38;;;7.60;83.40;;;;;;4129238;28;20408;-87
2023/01/12 09:53:21;;;;;;;0.50;0.28;;;7.50;83.40;;;;;;4143319;28;20038;-85
2023/01/12 09:56:39;;;;;;;1.48;0.13;;;7.50;83.40;;;;;;4141029;28;20057;-84
2023/01/12 10:04:07;;;;;;;3.65;2.15;;;7.60;83.90;;;;;;3221321;26;20057;-86
2023/01/12 10:06:34;;;;;;;1.25;0.90;;;7.70;84.10;;;;;;4115713;28;20081;-86
2023/01/12 10:15:04;;;;;;;1.52;0.40;;;7.80;84.50;;;;;;4106163;28;20803;-86
2023/01/12 10:17:29;;;;;;;1.77;0.20;;;7.80;84.80;;;;;;4108967;28;20133;-84
2023/01/12 10:20:10;;;;;;;1.90;0.17;;;7.90;84.80;;;;;;4113595;28;20540;-87
2023/01/12 10:22:42;;;;;;;0.52;0.10;;;7.90;85.60;;;;;;4108481;28;20089;-85
2023/01/12 10:25:26;;;;;;;0.20;0.08;;;7.90;86.50;;;;;;4106359;28;20041;-85
2023/01/12 10:28:41;;;;;;;0.95;0.20;;;8.00;85.80;;;;;;4109587;28;20094;-86
2023/01/12 10:31:36;;;;;;;1.40;0.30;;;8.10;85.90;;;;;;4159117;23;20614;-85
2023/01/12 10:35:36;;;;;;;0.95;0.20;;;8.10;86.00;;;;;;4066587;29;20071;-86
2023/01/12 10:37:31;;;;;;;0.75;0.28;;;8.20;86.30;;;;;;4055303;29;20534;-86
2023/01/12 10:40:02;;;;;;;3.28;0.47;;;8.30;85.90;;;;;;4047336;29;20048;-86
2023/01/12 10:46:45;;;;;;;;;;;;;;;;;;;;;
2023/01/12 10:49:18;;;;;;;7.50;1.00;;;8.40;86.10;;;;;;4008214;29;20053;-87
2023/01/12 10:51:47;;;;;;;4.25;0.70;;;8.30;86.00;;;;;;4037366;29;20056;-86
2023/01/12 10:55:10;;;;;;;5.03;0.90;;;8.50;86.20;;;;;;4041907;29;20531;-85
2023/01/12 10:57:30;;;;;;;15.75;1.83;;;8.50;86.10;;;;;;3962445;29;20038;-86
2023/01/12 10:59:58;;;;;;;12.25;2.90;;;8.60;85.90;;;;;;3959086;29;20077;-86
2023/01/12 11:02:18;;;;;;;16.05;2.83;;;8.70;87.00;;;;;;3961078;29;20072;-86
2023/01/12 11:08:26;;;;;;;43.30;14.93;;;8.60;86.40;;;;;;3912270;30;20135;-86
2023/01/12 11:14:32;;;;;;;28.85;7.80;;;8.70;86.10;;;;;;3975519;29;20057;-87
2023/01/12 11:16:52;;;;;;;25.88;4.75;;;8.80;86.10;;;;;;3973143;29;20413;-84
2023/01/12 11:19:40;;;;;;;28.00;4.07;;;8.80;85.90;;;;;;3960410;29;20865;-84
2023/01/12 11:35:07;;;;;;;29.52;4.20;;;8.90;85.70;;;;;;4092530;28;20034;-86
2023/01/12 11:41:18;;;;;;;23.05;3.03;;;8.90;85.40;;;;;;4045435;29;20572;-86
2023/01/12 11:53:39;;;;;;;23.20;4.15;;;9.00;85.30;;;;;;4013756;29;20520;-86
2023/01/12 11:56:35;;;;;;;26.00;4.03;;;9.00;85.10;;;;;;4000792;29;20091;-85
2023/01/12 11:59:22;;;;;;;21.10;3.33;;;9.00;85.10;;;;;;4012517;29;20126;-87
2023/01/12 12:01:55;;;;;;;22.33;3.30;;;9.00;85.10;;;;;;4002581;29;20487;-87
2023/01/12 12:08:13;;;;;;;;;;;;;;;;;;;;;
2023/01/12 12:10:50;;;;;;;28.90;4.28;;;9.00;84.90;;;;;;4289139;23;20049;-92
2023/01/12 12:13:42;;;;;;;27.08;3.25;;;9.00;84.70;;;;;;4143715;28;20037;-91
2023/01/12 12:16:01;;;;;;;23.17;3.65;;;9.00;84.70;;;;;;4142031;28;20036;-92
2023/01/12 12:18:38;;;;;;;21.33;3.63;;;9.00;84.60;;;;;;4137610;28;20036;-92
2023/01/12 12:21:24;;;;;;;26.00;3.92;;;9.00;84.40;;;;;;4140780;28;20092;-92
2023/01/12 12:24:21;;;;;;;24.35;2.85;;;8.90;84.50;;;;;;4140056;28;20079;-92
2023/01/12 12:26:47;;;;;;;30.42;3.30;;;9.00;84.30;;;;;;4141072;28;20052;-92
2023/01/12 12:29:37;;;;;;;20.45;3.25;;;9.00;84.20;;;;;;4139117;28;20037;-92
2023/01/12 12:32:23;;;;;;;20.65;2.95;;;9.00;84.20;;;;;;4137398;28;20045;-92
2023/01/12 12:35:07;;;;;;;17.92;2.42;;;9.00;84.10;;;;;;4140167;28;20088;-93
2023/01/12 12:37:34;;;;;;;19.98;2.75;;;9.00;84.00;;;;;;4148533;28;20049;-92
2023/01/12 12:40:16;;;;;;;17.33;2.85;;;9.00;83.70;;;;;;4139274;28;20172;-93
2023/01/12 12:47:53;;;;;;;17.95;2.85;;;9.00;83.60;;;;;;4126435;28;20182;-83
2023/01/12 12:50:29;;;;;;;17.55;2.70;;;9.00;83.50;;;;;;4124707;28;20738;-85
2023/01/12 12:53:20;;;;;;;17.88;2.63;;;9.00;83.50;;;;;;4126316;28;20036;-83
2023/01/12 12:55:43;;;;;;;15.52;2.78;;;9.00;83.40;;;;;;4126374;28;20551;-82
2023/01/12 12:58:25;;;;;;;14.37;2.03;;;8.90;83.10;;;;;;4112776;28;20054;-83
2023/01/12 13:00:47;;;;;;;17.33;2.97;;;9.00;83.10;;;;;;4077097;29;20880;-82
2023/01/12 13:03:13;;;;;;;14.18;3.05;;;8.80;82.70;;;;;;4079840;29;20064;-83
2023/01/12 13:06:10;;;;;;;7.90;1.83;;;8.90;82.40;;;;;;4075884;29;20132;-83
2023/01/12 13:08:34;;;;;;;5.75;0.90;;;8.90;82.40;;;;;;4068813;29;20047;-83
2023/01/12 13:11:05;;;;;;;4.22;1.10;;;9.00;82.10;;;;;;4077113;29;20079;-84
2023/01/12 13:13:36;;;;;;;7.72;1.05;;;8.90;82.00;;;;;;4078351;29;20087;-83
2023/01/12 13:16:11;;;;;;;6.90;1.08;;;8.90;81.90;;;;;;4061166;29;20046;-83
2023/01/12 13:18:42;;;;;;;6.63;1.15;;;8.90;82.10;;;;;;4075440;29;20083;-84
2023/01/12 13:21:04;;;;;;;9.35;1.08;;;8.90;81.90;;;;;;4077168;29;20086;-83
2023/01/12 13:24:06;;;;;;;5.75;1.05;;;8.90;81.70;;;;;;4065279;29;20044;-83
2023/01/12 13:26:38;;;;;;;5.28;0.52;;;8.80;81.70;;;;;;4062397;29;20050;-84
2023/01/12 13:29:22;;;;;;;3.33;0.60;;;8.80;81.50;;;;;;4073617;29;20712;-83
2023/01/12 13:31:42;;;;;;;5.57;0.70;;;8.80;81.40;;;;;;4077117;29;20047;-83
2023/01/12 13:34:35;;;;;;;1.95;0.45;;;8.90;81.30;;;;;;4061072;29;20051;-84
2023/01/12 13:37:25;;;;;;;3.80;0.57;;;8.80;81.10;;;;;;4076607;28;20050;-84
2023/01/12 13:40:02;;;;;;;2.65;0.43;;;8.80;81.20;;;;;;4123332;28;20846;-83
2023/01/12 13:45:08;;;;;;;2.60;0.60;;;8.70;80.70;;;;;;4126322;28;20069;-84
2023/01/12 13:47:32;;;;;;;7.88;0.47;;;8.70;80.50;;;;;;4125858;28;20731;-83
2023/01/12 13:49:59;;;;;;;2.53;0.60;;;8.70;80.60;;;;;;4126285;28;20089;-84
2023/01/12 13:52:32;;;;;;;3.28;0.40;;;8.60;80.60;;;;;;4116756;28;20544;-83
2023/01/12 13:54:51;;;;;;;1.55;0.47;;;8.70;80.70;;;;;;4108680;28;20456;-83
2023/01/12 13:57:19;;;;;;;3.13;0.30;;;8.60;80.80;;;;;;4125866;28;20052;-83
2023/01/12 13:59:41;;;;;;;3.35;0.55;;;8.60;80.80;;;;;;4126340;28;20112;-84
2023/01/12 14:02:15;;;;;;;3.38;0.35;;;8.60;80.70;;;;;;4125517;28;20053;-84
2023/01/12 14:04:53;;;;;;;3.85;0.60;;;8.60;80.70;;;;;;4111489;28;20584;-84
2023/01/12 14:07:34;;;;;;;6.05;0.75;;;8.60;80.70;;;;;;4124845;28;20033;-83
2023/01/12 14:10:14;;;;;;;2.58;0.40;;;8.50;80.60;;;;;;4125114;28;20085;-83
2023/01/12 14:13:14;;;;;;;5.03;0.70;;;8.40;80.60;;;;;;4128210;28;20045;-83
2023/01/12 14:18:18;;;;;;;4.95;0.70;;;8.50;80.60;;;;;;4123504;28;20045;-84
2023/01/12 14:20:59;;;;;;;2.63;0.35;;;8.50;80.70;;;;;;4114260;28;20114;-84
2023/01/12 14:23:32;;;;;;;4.65;0.50;;;8.40;80.80;;;;;;4110327;28;20234;-84
2023/01/12 14:26:26;;;;;;;2.92;0.50;;;8.40;80.80;;;;;;4110785;28;20101;-83
2023/01/12 14:28:47;;;;;;;6.03;0.82;;;8.40;80.80;;;;;;4109995;28;20095;-84